Time;durP1;ratioP1;P1;durP2;ratioP2;P2;SDS_P1;SDS_P2;PMS_P1;PMS_P2;Temp;Humidity;BMP_temperature;BMP_pressure;BME280_temperature;BME280_humidity;BME280_pressure;Samples;Min_cycle;Max_cycle;Signal;HPM_P1;HPM_P2
2021/09/17 00:00:08;;;;;;;;;;;;;;;;;;5092540;28;19969;-74
2021/09/17 00:02:34;;;;;;;;;;;;;;;;;;5092372;28;19967;-73
2021/09/17 00:05:00;;;;;;;;;;;;;;;;;;5092311;28;20393;-73
2021/09/17 00:07:27;;;;;;;;;;;;;;;;;;5092416;28;19959;-71
2021/09/17 00:09:53;;;;;;;;;;;;;;;;;;5092492;28;19924;-72
2021/09/17 00:12:20;;;;;;;;;;;;;;;;;;5092157;28;19967;-74
2021/09/17 00:14:46;;;;;;;;;;;;;;;;;;5099005;28;19924;-70
2021/09/17 00:17:12;;;;;;;;;;;;;;;;;;5116687;28;19924;-71
2021/09/17 00:19:39;;;;;;;;;;;;;;;;;;5116615;28;19923;-71
2021/09/17 00:22:05;;;;;;;;;;;;;;;;;;5116682;28;19967;-72
2021/09/17 00:24:32;;;;;;;;;;;;;;;;;;5116343;28;19974;-71
2021/09/17 00:26:59;;;;;;;;;;;;;;;;;;5116749;28;19923;-71
2021/09/17 00:29:25;;;;;;;;;;;;;;;;;;5116292;28;19974;-71
2021/09/17 00:31:51;;;;;;;;;;;;;;;;;;5116491;28;19959;-71
2021/09/17 00:34:18;;;;;;;;;;;;;;;;;;5116378;28;20326;-70
2021/09/17 00:36:44;;;;;;;;;;;;;;;;;;5116848;28;20068;-70
2021/09/17 00:39:13;;;;;;;;;;;;;;;;;;5116366;28;19955;-71
2021/09/17 00:41:39;;;;;;;;;;;;;;;;;;5115977;28;20476;-71
2021/09/17 00:44:05;;;;;;;;;;;;;;;;;;5116558;28;19986;-71
2021/09/17 00:46:32;;;;;;;;;;;;;;;;;;5116267;28;19965;-71
2021/09/17 00:48:58;;;;;;;;;;;;;;;;;;5116158;28;19966;-71
2021/09/17 00:51:24;;;;;;;;;;;;;;;;;;5115910;28;20389;-71
2021/09/17 00:53:51;;;;;;;;;;;;;;;;;;5115020;28;19959;-71
2021/09/17 00:56:17;;;;;;;;;;;;;;;;;;5115822;27;20013;-70
2021/09/17 00:58:44;;;;;;;;;;;;;;;;;;5114553;28;19971;-70
2021/09/17 01:01:11;;;;;;;;;;;;;;;;;;5115545;28;19973;-68
2021/09/17 01:03:38;;;;;;;;;;;;;;;;;;5115541;28;19924;-68
2021/09/17 01:06:04;;;;;;;;;;;;;;;;;;5116170;28;20056;-68
2021/09/17 01:08:30;;;;;;;;;;;;;;;;;;5115838;28;19955;-69
2021/09/17 01:10:57;;;;;;;;;;;;;;;;;;5115709;28;19928;-68
2021/09/17 01:13:23;;;;;;;;;;;;;;;;;;5115388;28;20409;-68
2021/09/17 01:15:50;;;;;;;;;;;;;;;;;;5115852;28;19924;-68
2021/09/17 01:18:16;;;;;;;;;;;;;;;;;;5115713;28;20381;-68
2021/09/17 01:20:42;;;;;;;;;;;;;;;;;;5115712;28;19967;-68
2021/09/17 01:23:09;;;;;;;;;;;;;;;;;;5115454;28;19963;-68
2021/09/17 01:25:35;;;;;;;;;;;;;;;;;;5114131;28;19983;-68
2021/09/17 01:28:01;;;;;;;;;;;;;;;;;;5115401;28;20402;-68
2021/09/17 01:30:28;;;;;;;;;;;;;;;;;;5115312;28;19981;-68
2021/09/17 01:32:54;;;;;;;;;;;;;;;;;;5115327;28;19924;-68
2021/09/17 01:35:20;;;;;;;;;;;;;;;;;;5115325;27;20327;-68
2021/09/17 01:37:47;;;;;;;;;;;;;;;;;;5115139;28;19924;-68
2021/09/17 01:40:13;;;;;;;;;;;;;;;;;;5115439;28;19923;-68
2021/09/17 01:42:40;;;;;;;;;;;;;;;;;;5114936;28;19924;-68
2021/09/17 01:45:06;;;;;;;;;;;;;;;;;;5115312;28;19927;-68
2021/09/17 01:47:32;;;;;;;;;;;;;;;;;;5114754;28;19924;-68
2021/09/17 01:49:59;;;;;;;;;;;;;;;;;;5115262;28;19927;-68
2021/09/17 01:52:25;;;;;;;;;;;;;;;;;;5114664;28;19932;-68
2021/09/17 01:54:51;;;;;;;;;;;;;;;;;;5115193;28;20370;-68
2021/09/17 01:57:18;;;;;;;;;;;;;;;;;;5114809;28;19924;-68
2021/09/17 01:59:44;;;;;;;;;;;;;;;;;;5114671;28;19953;-68
2021/09/17 02:02:11;;;;;;;;;;;;;;;;;;5114798;28;19924;-68
2021/09/17 02:04:37;;;;;;;;;;;;;;;;;;5114478;28;19969;-68
2021/09/17 02:07:03;;;;;;;;;;;;;;;;;;5114960;28;19977;-68
2021/09/17 02:09:30;;;;;;;;;;;;;;;;;;5114279;28;19924;-68
2021/09/17 02:11:56;;;;;;;;;;;;;;;;;;5114789;28;19973;-68
2021/09/17 02:14:23;;;;;;;;;;;;;;;;;;5114392;28;19977;-68
2021/09/17 02:16:49;;;;;;;;;;;;;;;;;;5114775;28;20341;-68
2021/09/17 02:19:15;;;;;;;;;;;;;;;;;;5114507;28;19957;-68
2021/09/17 02:21:42;;;;;;;;;;;;;;;;;;5114265;28;19924;-68
2021/09/17 02:24:08;;;;;;;;;;;;;;;;;;5114153;28;19988;-69
2021/09/17 02:26:34;;;;;;;;;;;;;;;;;;5114051;28;19928;-69
2021/09/17 02:29:01;;;;;;;;;;;;;;;;;;5114278;27;19923;-68
2021/09/17 02:31:27;;;;;;;;;;;;;;;;;;5114217;28;19973;-69
2021/09/17 02:33:54;;;;;;;;;;;;;;;;;;5114056;28;19928;-69
2021/09/17 02:36:20;;;;;;;;;;;;;;;;;;5113911;27;19977;-69
2021/09/17 02:38:46;;;;;;;;;;;;;;;;;;5114046;28;20385;-70
2021/09/17 02:41:13;;;;;;;;;;;;;;;;;;5114144;28;19973;-69
2021/09/17 02:43:39;;;;;;;;;;;;;;;;;;5113582;28;19969;-69
2021/09/17 02:46:06;;;;;;;;;;;;;;;;;;5114264;28;19928;-69
2021/09/17 02:48:32;;;;;;;;;;;;;;;;;;5113907;28;19953;-69
2021/09/17 02:50:58;;;;;;;;;;;;;;;;;;5114047;27;19928;-69
2021/09/17 02:53:25;;;;;;;;;;;;;;;;;;5113758;28;19973;-69
2021/09/17 02:55:51;;;;;;;;;;;;;;;;;;5114110;28;19923;-69
2021/09/17 02:58:17;;;;;;;;;;;;;;;;;;5113728;28;19923;-69
2021/09/17 03:00:44;;;;;;;;;;;;;;;;;;5114021;28;19927;-69
2021/09/17 03:03:10;;;;;;;;;;;;;;;;;;5114003;28;19924;-69
2021/09/17 03:05:37;;;;;;;;;;;;;;;;;;5113571;28;20871;-69
2021/09/17 03:08:03;;;;;;;;;;;;;;;;;;5113354;28;19924;-69
2021/09/17 03:10:30;;;;;;;;;;;;;;;;;;5113485;28;19924;-69
2021/09/17 03:12:56;;;;;;;;;;;;;;;;;;5113713;28;19980;-69
2021/09/17 03:15:22;;;;;;;;;;;;;;;;;;5113343;28;19924;-69
2021/09/17 03:17:49;;;;;;;;;;;;;;;;;;5113671;28;19928;-69
2021/09/17 03:20:15;;;;;;;;;;;;;;;;;;5113460;28;19924;-69
2021/09/17 03:22:42;;;;;;;;;;;;;;;;;;5113356;27;19924;-69
2021/09/17 03:25:08;;;;;;;;;;;;;;;;;;5113133;28;19944;-69
2021/09/17 03:27:34;;;;;;;;;;;;;;;;;;5113307;28;19924;-69
2021/09/17 03:30:02;;;;;;;;;;;;;;;;;;5113136;28;19973;-69
2021/09/17 03:32:28;;;;;;;;;;;;;;;;;;5112852;28;20026;-69
2021/09/17 03:34:54;;;;;;;;;;;;;;;;;;5113326;28;19973;-69
2021/09/17 03:37:21;;;;;;;;;;;;;;;;;;5113035;28;19970;-69
2021/09/17 03:39:47;;;;;;;;;;;;;;;;;;5113364;28;20363;-69
2021/09/17 03:42:14;;;;;;;;;;;;;;;;;;5113224;28;19927;-69
2021/09/17 03:44:40;;;;;;;;;;;;;;;;;;5112887;28;20333;-69
2021/09/17 03:47:06;;;;;;;;;;;;;;;;;;5112904;28;19928;-70
2021/09/17 03:49:33;;;;;;;;;;;;;;;;;;5112376;28;19928;-69
2021/09/17 03:51:59;;;;;;;;;;;;;;;;;;5112862;28;19923;-69
2021/09/17 03:54:27;;;;;;;;;;;;;;;;;;5112937;28;20374;-69
2021/09/17 03:56:53;;;;;;;;;;;;;;;;;;5112661;28;19923;-69
2021/09/17 03:59:19;;;;;;;;;;;;;;;;;;5112845;28;19928;-69
2021/09/17 04:01:47;;;;;;;;;;;;;;;;;;5112719;28;19924;-69
2021/09/17 04:04:14;;;;;;;;;;;;;;;;;;5113073;28;19928;-69
2021/09/17 04:06:42;;;;;;;;;;;;;;;;;;5112501;28;19984;-69
2021/09/17 04:09:08;;;;;;;;;;;;;;;;;;5112994;28;19923;-69
2021/09/17 04:11:35;;;;;;;;;;;;;;;;;;5112385;28;19973;-69
2021/09/17 04:14:01;;;;;;;;;;;;;;;;;;5113029;28;19924;-69
2021/09/17 04:16:28;;;;;;;;;;;;;;;;;;5112324;28;20289;-69
2021/09/17 04:18:54;;;;;;;;;;;;;;;;;;5112937;28;19924;-69
2021/09/17 04:21:20;;;;;;;;;;;;;;;;;;5112394;28;20438;-69
2021/09/17 04:23:47;;;;;;;;;;;;;;;;;;5112614;28;19972;-68
2021/09/17 04:26:13;;;;;;;;;;;;;;;;;;5112836;28;20467;-68
2021/09/17 04:28:40;;;;;;;;;;;;;;;;;;5112624;28;19977;-69
2021/09/17 04:31:06;;;;;;;;;;;;;;;;;;5112728;28;20522;-69
2021/09/17 04:33:32;;;;;;;;;;;;;;;;;;5112443;28;19973;-69
2021/09/17 04:35:59;;;;;;;;;;;;;;;;;;5112524;28;19928;-69
2021/09/17 04:38:25;;;;;;;;;;;;;;;;;;5112636;28;19924;-69
2021/09/17 04:40:52;;;;;;;;;;;;;;;;;;5112316;28;19924;-69
2021/09/17 04:43:18;;;;;;;;;;;;;;;;;;5112661;28;19924;-69
2021/09/17 04:45:44;;;;;;;;;;;;;;;;;;5112246;28;19924;-69
2021/09/17 04:48:11;;;;;;;;;;;;;;;;;;5112730;28;20258;-69
2021/09/17 04:50:37;;;;;;;;;;;;;;;;;;5112120;28;19932;-69
2021/09/17 04:53:03;;;;;;;;;;;;;;;;;;5112150;28;20434;-69
2021/09/17 04:55:30;;;;;;;;;;;;;;;;;;5112233;28;19928;-69
2021/09/17 04:57:56;;;;;;;;;;;;;;;;;;5112144;28;19924;-69
2021/09/17 05:00:23;;;;;;;;;;;;;;;;;;5112593;28;19928;-69
2021/09/17 05:02:49;;;;;;;;;;;;;;;;;;5115781;28;19977;-69
2021/09/17 05:05:15;;;;;;;;;;;;;;;;;;5116189;28;20119;-69
2021/09/17 05:07:42;;;;;;;;;;;;;;;;;;5115591;28;19924;-69
2021/09/17 05:10:09;;;;;;;;;;;;;;;;;;5115794;28;19928;-69
2021/09/17 05:12:35;;;;;;;;;;;;;;;;;;5115465;28;20378;-69
2021/09/17 05:15:02;;;;;;;;;;;;;;;;;;5115614;28;19924;-69
2021/09/17 05:17:28;;;;;;;;;;;;;;;;;;5115183;28;20359;-69
2021/09/17 05:19:55;;;;;;;;;;;;;;;;;;5115559;28;20289;-69
2021/09/17 05:22:21;;;;;;;;;;;;;;;;;;5115233;28;19928;-69
2021/09/17 05:24:47;;;;;;;;;;;;;;;;;;5115373;28;20482;-76
2021/09/17 05:27:14;;;;;;;;;;;;;;;;;;5115742;28;19977;-73
2021/09/17 05:29:40;;;;;;;;;;;;;;;;;;5115590;28;19923;-73
2021/09/17 05:32:07;;;;;;;;;;;;;;;;;;5115741;28;20377;-72
2021/09/17 05:34:33;;;;;;;;;;;;;;;;;;5115498;28;19969;-72
2021/09/17 05:37:00;;;;;;;;;;;;;;;;;;5115728;28;20370;-72
2021/09/17 05:39:26;;;;;;;;;;;;;;;;;;5114953;28;19973;-72
2021/09/17 05:41:52;;;;;;;;;;;;;;;;;;5115118;28;20267;-72
2021/09/17 05:44:19;;;;;;;;;;;;;;;;;;5114767;28;19977;-72
2021/09/17 05:46:45;;;;;;;;;;;;;;;;;;5115205;28;19973;-72
2021/09/17 05:49:12;;;;;;;;;;;;;;;;;;5114869;28;20392;-72
2021/09/17 05:51:38;;;;;;;;;;;;;;;;;;5114685;28;19981;-72
2021/09/17 05:54:05;;;;;;;;;;;;;;;;;;5114797;28;19924;-72
2021/09/17 05:56:31;;;;;;;;;;;;;;;;;;5114623;28;20374;-72
2021/09/17 05:58:57;;;;;;;;;;;;;;;;;;5115046;28;19928;-72
2021/09/17 06:01:24;;;;;;;;;;;;;;;;;;5114484;28;19923;-72
2021/09/17 06:03:50;;;;;;;;;;;;;;;;;;5115087;28;20319;-72
2021/09/17 06:06:18;;;;;;;;;;;;;;;;;;5114613;27;19924;-72
2021/09/17 06:08:44;;;;;;;;;;;;;;;;;;5114600;28;19924;-72
2021/09/17 06:11:11;;;;;;;;;;;;;;;;;;5114347;28;19973;-72
2021/09/17 06:13:37;;;;;;;;;;;;;;;;;;5114349;28;20681;-72
2021/09/17 06:16:04;;;;;;;;;;;;;;;;;;5114846;28;19927;-72
2021/09/17 06:18:30;;;;;;;;;;;;;;;;;;5113944;28;20312;-72
2021/09/17 06:20:58;;;;;;;;;;;;;;;;;;5114399;28;19924;-71
2021/09/17 06:23:24;;;;;;;;;;;;;;;;;;5113914;28;19999;-72
2021/09/17 06:25:50;;;;;;;;;;;;;;;;;;5114232;28;20442;-72
2021/09/17 06:28:17;;;;;;;;;;;;;;;;;;5114201;28;19924;-72
2021/09/17 06:30:43;;;;;;;;;;;;;;;;;;5114187;28;20036;-72
2021/09/17 06:33:10;;;;;;;;;;;;;;;;;;5114109;28;20369;-73
2021/09/17 06:35:36;;;;;;;;;;;;;;;;;;5113805;28;19924;-72
2021/09/17 06:38:03;;;;;;;;;;;;;;;;;;5114093;28;19949;-72
2021/09/17 06:40:29;;;;;;;;;;;;;;;;;;5113512;28;19981;-72
2021/09/17 06:42:56;;;;;;;;;;;;;;;;;;5113947;28;20378;-72
2021/09/17 06:45:22;;;;;;;;;;;;;;;;;;5113965;28;19963;-71
2021/09/17 06:47:48;;;;;;;;;;;;;;;;;;5114017;27;19953;-72
2021/09/17 06:50:15;;;;;;;;;;;;;;;;;;5113754;28;19977;-71
2021/09/17 06:52:47;;;;;;;;;;;;;;;;;;5113621;28;19965;-72
2021/09/17 06:55:13;;;;;;;;;;;;;;;;;;5114245;28;19985;-71
2021/09/17 06:57:40;;;;;;;;;;;;;;;;;;5113391;28;19928;-71
2021/09/17 07:00:06;;;;;;;;;;;;;;;;;;5113736;28;19972;-72
2021/09/17 07:02:32;;;;;;;;;;;;;;;;;;5113447;27;19973;-71
2021/09/17 07:04:59;;;;;;;;;;;;;;;;;;5113384;28;19980;-71
2021/09/17 07:07:25;;;;;;;;;;;;;;;;;;5113382;28;19924;-72
2021/09/17 07:09:51;;;;;;;;;;;;;;;;;;5113414;28;19954;-72
2021/09/17 07:12:18;;;;;;;;;;;;;;;;;;5113265;28;19923;-72
2021/09/17 07:14:44;;;;;;;;;;;;;;;;;;5113170;28;19924;-71
2021/09/17 07:17:11;;;;;;;;;;;;;;;;;;5113649;28;19928;-72
2021/09/17 07:19:37;;;;;;;;;;;;;;;;;;5112985;28;19923;-71
2021/09/17 07:22:05;;;;;;;;;;;;;;;;;;5113328;28;19932;-71
2021/09/17 07:24:32;;;;;;;;;;;;;;;;;;5112146;28;19924;-72
2021/09/17 07:26:58;;;;;;;;;;;;;;;;;;5112954;28;19980;-71
2021/09/17 07:29:24;;;;;;;;;;;;;;;;;;5113509;28;19927;-72
2021/09/17 07:31:51;;;;;;;;;;;;;;;;;;5113278;28;19969;-71
2021/09/17 07:34:17;;;;;;;;;;;;;;;;;;5112966;28;19977;-70
2021/09/17 07:36:43;;;;;;;;;;;;;;;;;;5113180;28;19924;-72
2021/09/17 07:39:10;;;;;;;;;;;;;;;;;;5113197;28;20027;-71
2021/09/17 07:41:36;;;;;;;;;;;;;;;;;;5112553;28;19924;-72
2021/09/17 07:44:03;;;;;;;;;;;;;;;;;;5113132;28;19924;-71
2021/09/17 07:46:29;;;;;;;;;;;;;;;;;;5112495;28;19976;-72
2021/09/17 07:48:55;;;;;;;;;;;;;;;;;;5113044;28;19924;-71
2021/09/17 07:51:22;;;;;;;;;;;;;;;;;;5112553;28;19924;-71
2021/09/17 07:53:48;;;;;;;;;;;;;;;;;;5112615;28;19923;-71
2021/09/17 07:56:15;;;;;;;;;;;;;;;;;;5112855;28;20358;-71
2021/09/17 07:58:41;;;;;;;;;;;;;;;;;;5112458;28;19927;-71
2021/09/17 08:01:07;;;;;;;;;;;;;;;;;;5113017;28;20386;-72
2021/09/17 08:03:34;;;;;;;;;;;;;;;;;;5112403;28;19973;-72
2021/09/17 08:06:00;;;;;;;;;;;;;;;;;;5112900;28;19924;-73
2021/09/17 08:08:27;;;;;;;;;;;;;;;;;;5112336;28;19961;-71
2021/09/17 08:10:53;;;;;;;;;;;;;;;;;;5112945;28;19927;-73
2021/09/17 08:13:19;;;;;;;;;;;;;;;;;;5112240;28;19927;-73
2021/09/17 08:15:46;;;;;;;;;;;;;;;;;;5112898;28;19968;-73
2021/09/17 08:18:12;;;;;;;;;;;;;;;;;;5112585;28;20313;-74
2021/09/17 08:20:40;;;;;;;;;;;;;;;;;;5112314;28;19924;-72
2021/09/17 08:23:07;;;;;;;;;;;;;;;;;;5112205;28;19939;-72
2021/09/17 08:25:33;;;;;;;;;;;;;;;;;;5112546;28;19924;-73
2021/09/17 08:27:59;;;;;;;;;;;;;;;;;;5112373;28;19928;-73
2021/09/17 08:30:26;;;;;;;;;;;;;;;;;;5112636;28;19972;-74
2021/09/17 08:32:52;;;;;;;;;;;;;;;;;;5112363;28;19977;-73
2021/09/17 08:35:19;;;;;;;;;;;;;;;;;;5122613;28;19908;-73
2021/09/17 08:37:45;;;;;;;;;;;;;;;;;;5128505;28;19924;-73
2021/09/17 08:40:11;;;;;;;;;;;;;;;;;;5118531;28;19981;-73
2021/09/17 08:42:38;;;;;;;;;;;;;;;;;;5115928;28;20271;-72
2021/09/17 08:45:04;;;;;;;;;;;;;;;;;;5116219;28;19923;-72
2021/09/17 08:47:31;;;;;;;;;;;;;;;;;;5116046;28;19924;-73
2021/09/17 08:49:57;;;;;;;;;;;;;;;;;;5116206;28;19980;-73
2021/09/17 08:52:23;;;;;;;;;;;;;;;;;;5115690;28;19924;-72
2021/09/17 08:54:50;;;;;;;;;;;;;;;;;;5115845;28;20382;-73
2021/09/17 08:57:16;;;;;;;;;;;;;;;;;;5116175;27;19973;-73
2021/09/17 08:59:43;;;;;;;;;;;;;;;;;;5115898;28;20340;-73
2021/09/17 09:02:10;;;;;;;;;;;;;;;;;;5115722;28;19975;-73
2021/09/17 09:04:41;;;;;;;;;;;;;;;;;;5115839;28;19923;-73
2021/09/17 09:07:07;;;;;;;;;;;;;;;;;;5115636;28;20392;-73
2021/09/17 09:09:34;;;;;;;;;;;;;;;;;;5115692;28;19964;-73
2021/09/17 09:12:00;;;;;;;;;;;;;;;;;;5115632;28;20336;-73
2021/09/17 09:14:26;;;;;;;;;;;;;;;;;;5115237;28;19977;-73
2021/09/17 09:16:53;;;;;;;;;;;;;;;;;;5115873;28;20323;-72
2021/09/17 09:19:19;;;;;;;;;;;;;;;;;;5115211;28;19923;-74
2021/09/17 09:21:46;;;;;;;;;;;;;;;;;;5115762;28;19928;-73
2021/09/17 09:24:12;;;;;;;;;;;;;;;;;;5115404;28;19984;-72
2021/09/17 09:26:38;;;;;;;;;;;;;;;;;;5115225;28;19923;-73
2021/09/17 09:29:05;;;;;;;;;;;;;;;;;;5115334;28;20326;-73
2021/09/17 09:31:31;;;;;;;;;;;;;;;;;;5115259;28;19969;-73
2021/09/17 09:33:58;;;;;;;;;;;;;;;;;;5115277;28;20271;-73
2021/09/17 09:36:24;;;;;;;;;;;;;;;;;;5115102;28;19923;-73
2021/09/17 09:38:50;;;;;;;;;;;;;;;;;;5115335;28;19932;-73
2021/09/17 09:41:17;;;;;;;;;;;;;;;;;;5115023;28;19924;-72
2021/09/17 09:43:43;;;;;;;;;;;;;;;;;;5115081;27;19928;-72
2021/09/17 09:46:10;;;;;;;;;;;;;;;;;;5113952;28;19924;-73
2021/09/17 09:48:36;;;;;;;;;;;;;;;;;;5114111;27;19924;-72
2021/09/17 09:51:02;;;;;;;;;;;;;;;;;;5114406;28;20370;-72
2021/09/17 09:53:29;;;;;;;;;;;;;;;;;;5114319;27;20074;-72
2021/09/17 09:55:55;;;;;;;;;;;;;;;;;;5114279;28;20285;-73
2021/09/17 09:58:22;;;;;;;;;;;;;;;;;;5113937;28;19976;-72
2021/09/17 10:00:48;;;;;;;;;;;;;;;;;;5114480;28;19928;-73
2021/09/17 10:03:14;;;;;;;;;;;;;;;;;;5114768;28;19923;-73
2021/09/17 10:05:41;;;;;;;;;;;;;;;;;;5114174;28;19931;-72
2021/09/17 10:08:07;;;;;;;;;;;;;;;;;;5114708;28;20423;-74
2021/09/17 10:10:33;;;;;;;;;;;;;;;;;;5114289;28;19985;-73
2021/09/17 10:13:00;;;;;;;;;;;;;;;;;;5114693;28;19924;-73
2021/09/17 10:15:29;;;;;;;;;;;;;;;;;;5113948;28;19927;-74
2021/09/17 10:17:55;;;;;;;;;;;;;;;;;;5114323;28;20309;-73
2021/09/17 10:20:22;;;;;;;;;;;;;;;;;;5114066;28;19923;-73
2021/09/17 10:22:49;;;;;;;;;;;;;;;;;;5114330;28;20379;-74
2021/09/17 10:25:15;;;;;;;;;;;;;;;;;;5114035;28;19924;-73
2021/09/17 10:27:41;;;;;;;;;;;;;;;;;;5114260;28;19928;-73
2021/09/17 10:30:08;;;;;;;;;;;;;;;;;;5114380;28;19924;-74
2021/09/17 10:32:35;;;;;;;;;;;;;;;;;;5114128;28;19924;-73
2021/09/17 10:35:04;;;;;;;;;;;;;;;;;;5114315;28;20026;-74
2021/09/17 10:37:30;;;;;;;;;;;;;;;;;;5113638;28;19984;-74
2021/09/17 10:39:57;;;;;;;;;;;;;;;;;;5114135;28;19928;-74
2021/09/17 10:42:27;;;;;;;;;;;;;;;;;;5113546;28;19923;-73
2021/09/17 10:44:53;;;;;;;;;;;;;;;;;;5113788;28;19931;-74
2021/09/17 10:47:19;;;;;;;;;;;;;;;;;;5113816;28;20566;-74
2021/09/17 10:49:46;;;;;;;;;;;;;;;;;;5113734;28;20052;-74
2021/09/17 10:52:12;;;;;;;;;;;;;;;;;;5113904;28;19928;-75
2021/09/17 10:54:39;;;;;;;;;;;;;;;;;;5113415;28;19965;-74
2021/09/17 10:57:06;;;;;;;;;;;;;;;;;;5113769;28;19927;-74
2021/09/17 10:59:32;;;;;;;;;;;;;;;;;;5113247;28;20018;-74
2021/09/17 11:02:00;;;;;;;;;;;;;;;;;;5113464;28;19924;-74
2021/09/17 11:04:26;;;;;;;;;;;;;;;;;;5113142;28;19923;-74
2021/09/17 11:06:53;;;;;;;;;;;;;;;;;;5113592;28;19973;-74
2021/09/17 11:09:19;;;;;;;;;;;;;;;;;;5113454;28;20373;-74
2021/09/17 11:11:48;;;;;;;;;;;;;;;;;;5113341;28;19932;-73
2021/09/17 11:14:14;;;;;;;;;;;;;;;;;;5113229;28;19924;-75
2021/09/17 11:16:41;;;;;;;;;;;;;;;;;;5112951;28;20446;-74
2021/09/17 11:19:07;;;;;;;;;;;;;;;;;;5113282;28;19944;-74
2021/09/17 11:21:33;;;;;;;;;;;;;;;;;;5113029;28;19923;-74
2021/09/17 11:24:00;;;;;;;;;;;;;;;;;;5113071;28;19969;-74
2021/09/17 11:26:26;;;;;;;;;;;;;;;;;;5112778;28;19923;-74
2021/09/17 11:28:55;;;;;;;;;;;;;;;;;;5112324;28;20450;-75
2021/09/17 11:31:21;;;;;;;;;;;;;;;;;;5112962;28;19923;-74
2021/09/17 11:33:47;;;;;;;;;;;;;;;;;;5113210;28;20400;-73
2021/09/17 11:36:15;;;;;;;;;;;;;;;;;;5113249;28;19924;-75
2021/09/17 11:38:41;;;;;;;;;;;;;;;;;;5112593;28;20450;-74
2021/09/17 11:41:08;;;;;;;;;;;;;;;;;;5112791;28;19924;-74
2021/09/17 11:43:34;;;;;;;;;;;;;;;;;;5112832;28;20347;-74
2021/09/17 11:46:00;;;;;;;;;;;;;;;;;;5113121;28;19927;-73
2021/09/17 11:48:27;;;;;;;;;;;;;;;;;;5112786;28;19980;-73
2021/09/17 11:50:53;;;;;;;;;;;;;;;;;;5113016;28;19976;-73
2021/09/17 11:53:20;;;;;;;;;;;;;;;;;;5112677;28;20332;-73
2021/09/17 11:55:46;;;;;;;;;;;;;;;;;;5112833;28;19939;-73
2021/09/17 11:58:13;;;;;;;;;;;;;;;;;;5112729;28;20390;-73
2021/09/17 12:00:39;;;;;;;;;;;;;;;;;;5112349;28;19924;-73
2021/09/17 12:03:06;;;;;;;;;;;;;;;;;;5112826;28;19924;-73
2021/09/17 12:05:32;;;;;;;;;;;;;;;;;;5112377;28;20344;-73
2021/09/17 12:07:59;;;;;;;;;;;;;;;;;;5112633;28;19923;-73
2021/09/17 12:10:25;;;;;;;;;;;;;;;;;;5114516;28;19924;-72
2021/09/17 12:12:52;;;;;;;;;;;;;;;;;;5116745;28;19924;-72
2021/09/17 12:15:18;;;;;;;;;;;;;;;;;;5116420;28;20370;-72
2021/09/17 12:17:44;;;;;;;;;;;;;;;;;;5116733;28;19927;-72
2021/09/17 12:20:11;;;;;;;;;;;;;;;;;;5116941;28;20366;-73
2021/09/17 12:22:37;;;;;;;;;;;;;;;;;;5116704;28;20304;-73
2021/09/17 12:25:04;;;;;;;;;;;;;;;;;;5116357;28;19924;-72
2021/09/17 12:27:30;;;;;;;;;;;;;;;;;;5116625;28;19996;-73
2021/09/17 12:29:56;;;;;;;;;;;;;;;;;;5116446;28;20285;-72
2021/09/17 12:32:23;;;;;;;;;;;;;;;;;;5116396;28;19976;-72
2021/09/17 12:34:49;;;;;;;;;;;;;;;;;;5116313;28;19963;-73
2021/09/17 12:37:16;;;;;;;;;;;;;;;;;;5116608;28;20323;-72
2021/09/17 12:39:42;;;;;;;;;;;;;;;;;;5116673;28;20301;-73
2021/09/17 12:42:09;;;;;;;;;;;;;;;;;;5116292;28;19928;-71
2021/09/17 12:44:35;;;;;;;;;;;;;;;;;;5116133;28;19927;-71
2021/09/17 12:47:01;;;;;;;;;;;;;;;;;;5116039;28;19924;-71
2021/09/17 12:49:28;;;;;;;;;;;;;;;;;;5116203;28;19975;-71
2021/09/17 12:51:55;;;;;;;;;;;;;;;;;;5116045;28;19924;-71
2021/09/17 12:54:22;;;;;;;;;;;;;;;;;;5116056;28;19923;-72
2021/09/17 12:56:48;;;;;;;;;;;;;;;;;;5116138;28;20267;-72
2021/09/17 12:59:14;;;;;;;;;;;;;;;;;;5115993;28;19977;-72
2021/09/17 13:01:41;;;;;;;;;;;;;;;;;;5116078;28;19923;-72
2021/09/17 13:04:07;;;;;;;;;;;;;;;;;;5116183;27;20281;-72
2021/09/17 13:06:34;;;;;;;;;;;;;;;;;;5115393;28;19928;-72
2021/09/17 13:09:00;;;;;;;;;;;;;;;;;;5116375;28;20385;-72
2021/09/17 13:11:27;;;;;;;;;;;;;;;;;;5115758;28;19923;-72
2021/09/17 13:13:53;;;;;;;;;;;;;;;;;;5115971;28;20373;-72
2021/09/17 13:16:20;;;;;;;;;;;;;;;;;;5115513;28;19969;-72
2021/09/17 13:18:46;;;;;;;;;;;;;;;;;;5115906;28;19936;-74
2021/09/17 13:21:14;;;;;;;;;;;;;;;;;;5114303;28;19924;-73
2021/09/17 13:23:40;;;;;;;;;;;;;;;;;;5114988;28;19930;-73
2021/09/17 13:26:07;;;;;;;;;;;;;;;;;;5115766;28;20327;-73
2021/09/17 13:28:33;;;;;;;;;;;;;;;;;;5115154;28;19927;-73
2021/09/17 13:30:59;;;;;;;;;;;;;;;;;;5115379;28;20370;-73
2021/09/17 13:33:26;;;;;;;;;;;;;;;;;;5115125;28;19953;-73
2021/09/17 13:35:52;;;;;;;;;;;;;;;;;;5115528;28;20366;-73
2021/09/17 13:38:19;;;;;;;;;;;;;;;;;;5114647;28;19969;-72
2021/09/17 13:40:45;;;;;;;;;;;;;;;;;;5115571;28;19924;-75
2021/09/17 13:43:11;;;;;;;;;;;;;;;;;;5113861;28;19935;-73
2021/09/17 13:45:38;;;;;;;;;;;;;;;;;;5103591;28;19928;-75
2021/09/17 13:48:04;;;;;;;;;;;;;;;;;;5108297;28;20409;-74
2021/09/17 13:50:31;;;;;;;;;;;;;;;;;;5094696;28;19956;-74
2021/09/17 13:52:57;;;;;;;;;;;;;;;;;;5106611;28;19980;-74
2021/09/17 13:55:24;;;;;;;;;;;;;;;;;;5115112;28;19952;-74
2021/09/17 13:57:51;;;;;;;;;;;;;;;;;;5114967;28;19930;-72
2021/09/17 14:00:18;;;;;;;;;;;;;;;;;;5112616;28;19924;-74
2021/09/17 14:02:44;;;;;;;;;;;;;;;;;;5094648;28;20482;-71
2021/09/17 14:05:10;;;;;;;;;;;;;;;;;;5094274;28;19927;-71
2021/09/17 14:07:37;;;;;;;;;;;;;;;;;;5094567;28;20309;-71
2021/09/17 14:10:03;;;;;;;;;;;;;;;;;;5094249;28;19924;-71
2021/09/17 14:12:30;;;;;;;;;;;;;;;;;;5094220;28;19928;-71
2021/09/17 14:14:56;;;;;;;;;;;;;;;;;;5094262;28;19928;-71
2021/09/17 14:17:22;;;;;;;;;;;;;;;;;;5096029;28;19950;-70
2021/09/17 14:19:49;;;;;;;;;;;;;;;;;;5114634;28;19923;-74
2021/09/17 14:22:15;;;;;;;;;;;;;;;;;;5114698;28;20369;-72
2021/09/17 14:24:42;;;;;;;;;;;;;;;;;;5113742;28;19924;-74
2021/09/17 14:27:08;;;;;;;;;;;;;;;;;;5114453;28;20331;-72
2021/09/17 14:29:34;;;;;;;;;;;;;;;;;;5114001;28;19972;-72
2021/09/17 14:32:01;;;;;;;;;;;;;;;;;;5114057;28;20340;-73
2021/09/17 14:34:27;;;;;;;;;;;;;;;;;;5113628;28;19972;-74
2021/09/17 14:36:53;;;;;;;;;;;;;;;;;;5114409;28;20355;-73
2021/09/17 14:39:20;;;;;;;;;;;;;;;;;;5113924;28;19924;-73
2021/09/17 14:41:46;;;;;;;;;;;;;;;;;;5114183;28;19927;-75
2021/09/17 14:44:13;;;;;;;;;;;;;;;;;;5113884;28;19923;-75
2021/09/17 14:46:39;;;;;;;;;;;;;;;;;;5114211;28;19923;-72
2021/09/17 14:49:05;;;;;;;;;;;;;;;;;;5114256;28;19924;-74
2021/09/17 14:51:32;;;;;;;;;;;;;;;;;;5111780;28;19923;-73
2021/09/17 14:53:58;;;;;;;;;;;;;;;;;;5095256;28;19974;-71
2021/09/17 14:56:25;;;;;;;;;;;;;;;;;;5093644;28;20377;-73
2021/09/17 14:58:51;;;;;;;;;;;;;;;;;;5093288;28;19977;-73
2021/09/17 15:01:17;;;;;;;;;;;;;;;;;;5093372;28;19923;-74
2021/09/17 15:03:44;;;;;;;;;;;;;;;;;;5093171;28;20313;-72
2021/09/17 15:06:10;;;;;;;;;;;;;;;;;;5093147;28;19924;-74
2021/09/17 15:08:37;;;;;;;;;;;;;;;;;;5092788;28;20819;-74
2021/09/17 15:11:03;;;;;;;;;;;;;;;;;;5093363;28;19977;-76
2021/09/17 15:13:30;;;;;;;;;;;;;;;;;;5093035;28;20461;-74
2021/09/17 15:15:56;;;;;;;;;;;;;;;;;;5093296;28;19977;-72
2021/09/17 15:18:22;;;;;;;;;;;;;;;;;;5093057;28;19978;-76
2021/09/17 15:20:49;;;;;;;;;;;;;;;;;;5092901;28;19924;-73
2021/09/17 15:23:15;;;;;;;;;;;;;;;;;;5092867;28;19924;-75
2021/09/17 15:25:42;;;;;;;;;;;;;;;;;;5092688;28;19928;-73
2021/09/17 15:28:08;;;;;;;;;;;;;;;;;;5093038;28;19928;-74
2021/09/17 15:30:34;;;;;;;;;;;;;;;;;;5092519;28;19977;-74
2021/09/17 15:33:01;;;;;;;;;;;;;;;;;;5092972;28;19977;-73
2021/09/17 15:35:27;;;;;;;;;;;;;;;;;;5092704;28;20436;-72
2021/09/17 15:37:54;;;;;;;;;;;;;;;;;;5092736;28;19924;-73
2021/09/17 15:40:20;;;;;;;;;;;;;;;;;;5092785;28;19974;-76
2021/09/17 15:42:46;;;;;;;;;;;;;;;;;;5092648;28;19974;-75
2021/09/17 15:45:13;;;;;;;;;;;;;;;;;;5091780;28;19924;-74
2021/09/17 15:47:39;;;;;;;;;;;;;;;;;;5092318;28;20325;-73
2021/09/17 15:50:05;;;;;;;;;;;;;;;;;;5092537;28;19978;-73
2021/09/17 15:52:32;;;;;;;;;;;;;;;;;;5102971;28;19946;-73
2021/09/17 15:54:59;;;;;;;;;;;;;;;;;;5113094;28;19973;-73
2021/09/17 15:57:25;;;;;;;;;;;;;;;;;;5112328;28;19924;-74
2021/09/17 15:59:51;;;;;;;;;;;;;;;;;;5113101;28;20323;-75
2021/09/17 16:02:18;;;;;;;;;;;;;;;;;;5113049;28;19980;-72
2021/09/17 16:04:44;;;;;;;;;;;;;;;;;;5112935;28;19924;-71
2021/09/17 16:07:11;;;;;;;;;;;;;;;;;;5112689;28;19930;-73
2021/09/17 16:09:37;;;;;;;;;;;;;;;;;;5112385;28;20090;-73
2021/09/17 16:12:05;;;;;;;;;;;;;;;;;;5112691;28;20348;-72
2021/09/17 16:14:31;;;;;;;;;;;;;;;;;;5112392;28;19923;-73
2021/09/17 16:16:58;;;;;;;;;;;;;;;;;;5112705;28;20446;-71
2021/09/17 16:19:24;;;;;;;;;;;;;;;;;;5112418;28;19924;-73
2021/09/17 16:21:50;;;;;;;;;;;;;;;;;;5112604;28;20339;-72
2021/09/17 16:24:17;;;;;;;;;;;;;;;;;;5112504;28;19927;-73
2021/09/17 16:26:43;;;;;;;;;;;;;;;;;;5112792;28;20323;-72
2021/09/17 16:29:10;;;;;;;;;;;;;;;;;;5112492;28;19924;-73
2021/09/17 16:31:36;;;;;;;;;;;;;;;;;;5112590;28;20336;-73
2021/09/17 16:34:05;;;;;;;;;;;;;;;;;;5112481;28;19985;-71
2021/09/17 16:36:31;;;;;;;;;;;;;;;;;;5112142;28;19924;-72
2021/09/17 16:38:57;;;;;;;;;;;;;;;;;;5112913;28;19928;-71